1978 Severe Tropical Cyclone VERN (1978027S16115)


IBTrACS version v04r00. Visit IBTrACS website for data access.
Please direct all questions to the IBTrACS Q and A forum

Storm track - Intensity - Wind Radii - Intensity Data - Source Data - All data

Summary Information

Storm ID 1978027S16115
Start Jan 27 01Z
Landfall Feb 1 06Z
Max Intensity 85 kt (Jan 31 00Z), 964 mb (Jan 31 01Z)
End Feb 3 01Z
ATCF IDs ,SH161978
Track status Best track data.

Storm track plot

Map of storm track

Intensity plots

Map of storm track

Radial wind information

No radial wind information for this storm


Position and Intensity Table

BASIN ISO_TIME_________ NATURE LAT LON WMO WIND WMO PRES USA WIND BOM WIND BOM PRES DS824 WIND DS824 PRES TD9636 WIND NEUMANN WIND NEUMANN PRES
degrees north degrees east kts mb kts kts mb kts mb kts kts mb
SI 1978-01-27 01:00:00 NR -16.00 114.80 25 999 25 999
SI 03:00:00 NR -16.00 114.53 25 998
SI 04:00:00 NR -16.00 114.40 25 998 25 998
SI 06:00:00 TS -16.00 114.17 25 997 35 997 35 997
SI 07:00:00 TS -16.00 114.06 25 997 25 997 35 997 35 997
SI 09:00:00 TS -16.01 113.80 25 997 35 997 35 997
SI 10:00:00 TS -16.01 113.68 25 997 25 997 35 997 35 997
SI 12:00:00 TS -16.00 113.37 35 28 997 35 997 35 35 997
SI 13:00:00 TS -15.97 113.21 30 997 35 30 997 35 997 35 35 997
SI 15:00:00 TS -15.87 112.91 35 30 997 35 997 35 35 997
SI 16:00:00 TS -15.81 112.76 30 997 35 30 997 35 997 35 35 997
SI 18:00:00 TS -15.73 112.47 35 30 997 35 997 35 35 997
SI 19:00:00 TS -15.70 112.33 30 997 35 30 997 35 996 35 35 996
SI 21:00:00 TS -15.65 112.02 35 30 996 37 996 35 37 996
SI 22:00:00 TS -15.63 111.86 30 996 35 30 996 38 995 35 38 995
SI 1978-01-28 00:00:00 TS -15.62 111.53 35 36 995 40 995 35 40 995
SI 01:00:00 TS -15.63 111.35 40 995 35 40 995 40 994 36 40 994
SI 03:00:00 TS -15.66 110.98 37 40 994 42 993 38 40 994
SI 04:00:00 TS -15.68 110.80 40 994 38 40 994 43 993 39 40 993
SI 06:00:00 TS -15.75 110.45 40 43 992 45 992 42 40 993
SI 07:00:00 TS -15.80 110.25 45 992 41 45 992 45 991 43 41 992
SI 09:00:00 TS -15.94 109.88 45 48 990 47 990 46 45 991
SI 10:00:00 TS -16.02 109.75 50 990 46 50 990 48 989 47 46 990
SI 12:00:00 TS -16.22 109.67 50 50 988 50 988 50 50 989
SI 13:00:00 TS -16.31 109.78 50 988 50 50 988 50 987 50 50 988
SI 15:00:00 TS -16.39 110.23 52 50 986 52 986 52 52 987
SI 16:00:00 TS -16.41 110.52 50 986 53 50 986 53 985 53 53 986
SI 18:00:00 TS -16.39 111.09 55 53 984 55 984 55 55 985
SI 19:00:00 TS -16.35 111.36 55 984 55 55 984 55 983 55 55 984
SI 21:00:00 TS -16.27 111.89 57 58 982 57 982 57 57 983
SI 22:00:00 TS -16.22 112.15 60 982 58 60 982 58 982 58 58 983
SI 1978-01-29 00:00:00 TS -16.12 112.59 60 60 981 60 981 60 60 982
SI 01:00:00 TS -16.09 112.75 60 981 60 60 981 60 980 60 60 981
SI 03:00:00 TS -16.02 112.99 60 60 980 60 980 61 62 980
SI 04:00:00 TS -15.99 113.09 60 980 60 60 980 60 979 61 63 980
SI 06:00:00 TS -15.93 113.28 60 60 979 60 979 62 65 979
SI 07:00:00 TS -15.90 113.39 60 979 60 60 979 60 978 62 65 978
SI 09:00:00 TS -15.85 113.62 62 60 978 62 978 63 65 978
SI 10:00:00 TS -15.83 113.74 60 978 63 60 978 63 977 64 65 977
SI 12:00:00 TS -15.80 113.95 65 63 977 65 977 65 65 977
SI 13:00:00 TS -15.78 114.05 65 977 65 65 977 65 976 65 65 976
SI 15:00:00 TS -15.75 114.25 65 68 976 65 976 66 67 976
SI 16:00:00 TS -15.74 114.34 70 976 65 70 976 65 975 66 68 975
SI 18:00:00 TS -15.70 114.55 65 70 975 65 975 67 70 975
SI 19:00:00 TS -15.69 114.65 70 975 65 70 975 65 974 67 70 974
SI 21:00:00 TS -15.68 114.86 67 70 974 67 974 68 70 974
SI 22:00:00 TS -15.68 114.97 70 974 68 70 974 68 973 69 70 973
SI 1978-01-30 00:00:00 TS -15.70 115.24 70 70 973 70 973 70 70 973
SI 01:00:00 TS -15.71 115.40 70 973 70 70 973 70 972 70 70 972
SI 03:00:00 TS -15.77 115.77 70 70 971 72 971 71 72 971
SI 04:00:00 TS -15.80 115.97 70 971 70 70 971 73 970 71 73 971
SI 06:00:00 TS -15.87 116.38 70 73 969 75 969 72 75 970
SI 07:00:00 TS -15.91 116.57 75 969 70 75 969 75 968 72 75 969
SI 09:00:00 TS -16.00 116.96 72 75 968 75 968 73 75 969
SI 10:00:00 TS -16.05 117.15 75 968 73 75 968 75 968 74 75 968
SI 12:00:00 TS -16.16 117.53 75 75 968 75 968 75 75 968
SI 13:00:00 TS -16.21 117.71 75 968 75 75 968 75 967 75 75 967
SI 15:00:00 TS -16.31 118.09 77 75 968 75 967 77 77 967
SI 16:00:00 TS -16.37 118.29 75 968 78 75 968 75 967 78 78 967
SI 18:00:00 TS -16.50 118.70 80 78 967 75 967 80 80 967
SI 19:00:00 TS -16.57 118.92 80 967 80 80 967 75 966 80 80 966
SI 21:00:00 TS -16.70 119.34 82 80 966 77 966 82 80 966
SI 22:00:00 TS -16.77 119.53 80 966 83 80 966 78 965 83 80 965
SI 1978-01-31 00:00:00 TS -16.93 119.89 85 80 965 80 965 85 80 965
SI 01:00:00 TS -17.02 120.04 80 965 85 80 965 80 964 85 80 964
SI 03:00:00 TS -17.17 120.30 85 80 965 80 964 85 80 964
SI 04:00:00 TS -17.26 120.41 80 965 85 80 965 80 964 85 80 964
SI 06:00:00 TS -17.43 120.60 85 80 964 80 964 85 80 964
SI 07:00:00 TS -17.52 120.70 80 964 85 80 964 80 964 85 80 964
SI 09:00:00 TS -17.71 120.93 85 80 964 80 964 85 80 964
SI 10:00:00 TS -17.80 121.03 80 965 85 80 965 80 964 85 80 964
SI 12:00:00 TS -17.95 121.17 80 85 80 965 80 964 85 80 965
SI 13:00:00 TS -18.03 121.23 80 965 85 80 965 80 964 85 80 965
SI 15:00:00 TS -18.16 121.34 85 80 965 80 964 85 80 965
SI 16:00:00 TS -18.23 121.37 80 965 85 80 965 80 964 85 80 965
SI 18:00:00 TS -18.35 121.41 85 80 965 80 965 85 80 965
SI 19:00:00 TS -18.42 121.42 80 965 85 80 965 79 965 85 80 965
SI 21:00:00 TS -18.56 121.44 85 80 965 77 966 85 80 965
SI 22:00:00 TS -18.63 121.44 80 965 85 80 965 76 966 85 80 965
SI 1978-02-01 00:00:00 TS -18.78 121.43 85 80 965 75 968 85 80 965
SI 01:00:00 TS -18.86 121.42 80 965 83 80 965 74 968 83 79 965
SI 03:00:00 TS -19.05 121.38 80 80 966 72 969 80 77 967
SI 04:00:00 TS -19.15 121.35 80 967 78 80 967 71 969 78 76 967
SI 06:00:00 TS -19.34 121.28 75 73 969 70 971 75 75 969
SI 07:00:00 TS -19.43 121.23 70 971 73 70 971 68 972 73 70 970
SI 09:00:00 TS -19.60 121.13 70 66 973 65 975 70 62 972
SI 10:00:00 TS -19.69 121.08 65 975 68 65 975 63 976 68 58 973
SI 12:00:00 TS -19.85 120.96 65 61 977 60 979 65 50 976
SI 13:00:00 TS -19.94 120.90 60 979 63 60 979 59 979 63 48 977
SI 15:00:00 TS -20.11 120.76 60 53 981 57 982 60 45 979
SI 16:00:00 TS -20.19 120.69 50 982 58 50 982 56 982 58 43 980
SI 18:00:00 TS -20.35 120.58 55 46 984 55 985 55 40 983
SI 19:00:00 TS -20.42 120.53 45 985 53 45 985 53 985 53 39 983
SI 21:00:00 TS -20.57 120.45 50 41 987 50 987 50 37 985
SI 22:00:00 TS -20.65 120.41 40 988 48 40 988 48 988 48 36 986
SI 1978-02-02 00:00:00 TS -20.83 120.34 45 36 989 45 990 45 35 988
SI 01:00:00 TS -20.94 120.31 35 990 44 35 990 45 990 44 34 988
SI 03:00:00 TS -21.18 120.26 42 31 990 45 990 43 32 989
SI 04:00:00 TS -21.31 120.25 30 990 41 30 990 45 990 43 31 989
SI 06:00:00 TS -21.57 120.21 40 30 990 45 990 42 30 990
SI 07:00:00 TS -21.70 120.20 30 990 40 30 990 44 990 42 30 990
SI 09:00:00 TS -21.96 120.19 40 26 991 42 991 41 30 991
SI 10:00:00 TS -22.09 120.19 25 992 40 25 992 41 991 40 30 991
SI 12:00:00 TS -22.33 120.21 40 25 992 40 993 40 30 992
SI 13:00:00 TS -22.44 120.24 25 993 40 25 993 40 993 39 30 992
SI 15:00:00 TS -22.65 120.33 40 25 993 40 994 38 30 993
SI 16:00:00 TS -22.75 120.38 25 993 40 25 993 40 994 38 30 993
SI 18:00:00 TS -22.94 120.50 40 25 994 40 995 37 30 994
SI 19:00:00 TS -23.04 120.56 25 995 39 25 995 39 995 37 29 994
SI 21:00:00 TS -23.23 120.70 37 25 995 37 996 36 27 995
SI 22:00:00 TS -23.33 120.78 25 996 36 25 996 36 996 35 26 995
SI 1978-02-03 00:00:00 TS -23.53 120.94 35 25 996 35 997 35 25 996
SI 01:00:00 NR -23.60 121.00 25 997 25 997

Source Information

Agency Information
USA bsh161978.txt
TOKYO
CMA
HKO
NEWDELHI
REUNION
BOM IDCKMSTM0S.csv:Line=11110:VERN
NADI
WELLINGTON
DS824 aus_area.dat:572:VERN
TD9636 cons_worldwide_trop_cyclone_18710101-19891231-006:Line=10539
TD9635
NEUMANN tracks.sh:Storm=520:VERN:BSH1678:BM487
MLC

All available IBTrACS Data

SEASON BASIN SUBBASIN ISO_TIME_________ NATURE LAT LON WMO WIND WMO PRES WMO AGENCY DIST2LAND LANDFALL IFLAG USA AGENCY USA ATCF_ID USA LAT USA LON USA WIND USA SSHS BOM LAT BOM LON BOM TYPE BOM WIND BOM PRES BOM TNUM BOM CI DS824 LAT DS824 LON DS824 STAGE DS824 WIND DS824 PRES TD9636 LAT TD9636 LON TD9636 STAGE TD9636 WIND NEUMANN LAT NEUMANN LON NEUMANN CLASS NEUMANN WIND NEUMANN PRES STORM SPEED STORM DIR
Year degrees north degrees east kts mb km km degrees north degrees east kts 1 degrees north degrees east kts mb 1 1 degrees north degrees east kts mb degrees north degrees east kts degrees north degrees east kts mb kts degrees
1978 SI WA 1978-01-27 01:00:00 NR -16.00 114.80 25 999 bom 552 552 ______O_______ -1 -16.00 114.80 20 25 999 1.50 1.50 8 270
1978 SI WA 03:00:00 NR -16.00 114.53 564 564 ______P_______ -1 -16.00 114.53 20 25 998 8 270
1978 SI WA 04:00:00 NR -16.00 114.40 25 998 bom 569 569 ______O_______ -1 -16.00 114.40 20 25 998 2.00 7 270
1978 SI WA 06:00:00 TS -16.00 114.17 578 578 ______P__O__O_ -1 -16.00 114.13 20 25 997 -16.00 114.10 TC 35 997 -16.00 114.40 TC 35 997 7 269
1978 SI WA 07:00:00 TS -16.00 114.06 25 997 bom 583 583 ______O__P__P_ -1 -16.00 114.00 20 25 997 2.00 -16.01 113.97 TC 35 997 -16.00 114.26 TC 35 997 7 269
1978 SI WA 09:00:00 TS -16.01 113.80 598 598 ______P__P__P_ -1 -16.00 113.73 20 25 997 -16.02 113.70 TC 35 997 -16.01 114.00 TC 35 997 7 269
1978 SI WA 10:00:00 TS -16.01 113.68 25 997 bom 604 604 ______O__P__P_ -1 -16.00 113.60 20 25 997 2.00 -16.02 113.56 TC 35 997 -16.01 113.86 TC 35 997 8 271
1978 SI WA 12:00:00 TS -16.00 113.37 621 627 O_____P__OO_O_ jtwc_sh SH161978 -16.00 113.20 35 0 -16.01 113.33 20 28 997 -16.00 113.30 TC 35 997 -16.00 113.20 2 35 -16.00 113.60 TC 35 997 9 275
1978 SI WA 13:00:00 TS -15.97 113.21 30 997 bom 632 632 P_____O__PP_P_ SH161978 -15.92 113.05 35 0 -16.00 113.20 20 30 997 2.50 -15.98 113.17 TC 35 997 -15.93 113.07 2 35 -15.99 113.47 TC 35 997 9 286
1978 SI WA 15:00:00 TS -15.87 112.91 658 658 P_____P__PP_P_ SH161978 -15.77 112.75 35 0 -15.94 112.93 20 30 997 -15.91 112.91 TC 35 997 -15.81 112.82 2 35 -15.96 113.22 TC 35 997 9 290
1978 SI WA 16:00:00 TS -15.81 112.76 30 997 bom 673 673 P_____O__PP_P_ SH161978 -15.71 112.60 35 0 -15.90 112.80 20 30 997 2.50 -15.88 112.77 TC 35 997 -15.75 112.68 2 35 -15.95 113.08 TC 35 997 9 289
1978 SI WA 18:00:00 TS -15.73 112.47 700 700 O_____P__OP_O_ jtwc_sh SH161978 -15.60 112.30 35 0 -15.83 112.54 20 30 997 -15.80 112.50 TC 35 997 -15.65 112.41 2 35 -15.90 112.80 TC 35 997 9 286
1978 SI WA 19:00:00 TS -15.70 112.33 30 997 bom 712 712 P_____O__PP_P_ SH161978 -15.56 112.15 35 0 -15.80 112.40 20 30 997 2.50 -15.77 112.36 TC 35 996 -15.62 112.26 2 35 -15.87 112.65 TC 35 996 9 281
1978 SI WA 21:00:00 TS -15.65 112.02 735 735 P_____P__PP_P_ SH161978 -15.53 111.85 35 0 -15.73 112.07 20 30 996 -15.70 112.08 TC 37 996 -15.57 111.94 2 35 -15.81 112.32 TC 37 996 9 278
1978 SI WA 22:00:00 TS -15.63 111.86 30 996 bom 738 738 P_____O__PP_P_ SH161978 -15.54 111.70 35 0 -15.70 111.90 20 30 996 2.50 -15.67 111.93 TC 38 995 -15.57 111.77 2 35 -15.77 112.15 TC 38 995 9 273
1978 SI WA 1978-01-28 00:00:00 TS -15.62 111.53 752 752 O_____P__OO_O_ jtwc_sh SH161978 -15.60 111.40 35 0 -15.63 111.57 20 36 995 -15.60 111.60 TC 40 995 -15.60 111.40 2 35 -15.70 111.80 TC 40 995 10 271
1978 SI WA 01:00:00 TS -15.63 111.35 40 995 bom 756 756 P_____O__PP_P_ SH161978 -15.66 111.25 35 0 -15.60 111.40 30 40 995 3.00 3.00 -15.54 111.40 TC 40 994 -15.64 111.20 2 36 -15.65 111.62 TC 40 994 11 266
1978 SI WA 03:00:00 TS -15.66 110.98 762 762 P_____P__PP_P_ SH161978 -15.83 110.94 37 0 -15.53 111.01 30 40 994 -15.43 110.98 TC 42 993 -15.76 110.78 2 38 -15.55 111.25 TC 40 994 11 264
1978 SI WA 04:00:00 TS -15.68 110.80 40 994 bom 770 770 P_____O__PP_P_ SH161978 -15.92 110.79 38 0 -15.50 110.80 30 40 994 3.00 -15.40 110.78 TC 43 993 -15.83 110.57 2 39 -15.52 111.06 TC 40 993 10 260
1978 SI WA 06:00:00 TS -15.75 110.45 780 780 O_____P__OP_O_ jtwc_sh SH161978 -16.10 110.50 40 0 -15.41 110.40 30 43 992 -15.40 110.40 TC 45 992 -15.99 110.19 2 42 -15.50 110.70 TC 40 993 11 257
1978 SI WA 07:00:00 TS -15.80 110.25 45 992 bom 785 785 P_____O__PP_P_ SH161978 -16.17 110.31 41 0 -15.40 110.20 30 45 992 3.00 -15.47 110.19 TC 45 991 -16.07 110.03 2 43 -15.53 110.47 TC 41 992 12 251
1978 SI WA 09:00:00 TS -15.94 109.88 797 788 P_____P__PP_P_ SH161978 -16.29 109.94 45 0 -15.47 109.74 30 48 990 -15.70 109.84 TC 47 990 -16.23 109.78 2 46 -15.65 110.01 TC 45 991 11 245
1978 SI WA 10:00:00 TS -16.02 109.75 50 990 bom 799 781 P_____O__PP_P_ SH161978 -16.34 109.80 46 0 -15.60 109.60 30 50 990 3.50 -15.84 109.73 TC 48 989 -16.30 109.71 2 47 -15.73 109.84 TC 46 990 7 214
1978 SI WA 12:00:00 TS -16.22 109.67 781 766 O_____P__OO_O_ jtwc_sh SH161978 -16.40 109.70 50 0 -16.15 109.55 30 50 988 -16.10 109.70 TC 50 988 -16.40 109.70 2 50 -15.90 109.70 TC 50 989 6 173
1978 SI WA 13:00:00 TS -16.31 109.78 50 988 bom 766 733 P_____O__PP_P_ SH161978 -16.41 109.77 50 0 -16.40 109.70 30 50 988 3.50 -16.21 109.85 TC 50 987 -16.41 109.81 2 50 -16.00 109.80 TC 50 988 11 108
1978 SI WA 15:00:00 TS -16.39 110.23 733 716 P_____P__PP_P_ SH161978 -16.39 110.10 52 0 -16.60 110.40 30 50 986 -16.38 110.36 TC 52 986 -16.41 110.18 2 52 -16.20 110.23 TC 52 987 14 98
1978 SI WA 16:00:00 TS -16.41 110.52 50 986 bom 716 686 P_____O__PP_P_ SH161978 -16.36 110.34 53 0 -16.60 110.80 30 50 986 3.50 -16.45 110.67 TC 53 985 -16.39 110.42 2 53 -16.28 110.51 TC 53 986 17 90
1978 SI WA 18:00:00 TS -16.39 111.09 686 677 O_____P__OP_O_ jtwc_sh SH161978 -16.30 110.90 55 0 -16.49 111.37 30 53 984 -16.50 111.30 TC 55 984 -16.34 110.98 2 55 -16.40 111.10 TC 55 985 16 86
1978 SI WA 19:00:00 TS -16.35 111.36 55 984 bom 673 664 P_____O__PP_P_ SH161978 -16.27 111.20 55 0 -16.40 111.60 30 55 984 4.00 -16.47 111.54 TC 55 983 -16.30 111.28 2 55 -16.41 111.34 TC 55 984 16 81
1978 SI WA 21:00:00 TS -16.27 111.89 664 664 P_____P__PP_P_ SH161978 -16.20 111.85 57 0 -16.26 112.02 30 58 982 -16.34 111.97 TC 57 982 -16.22 111.88 2 57 -16.37 111.80 TC 57 983 15 80
1978 SI WA 22:00:00 TS -16.22 112.15 60 982 bom 668 657 P_____O__PP_P_ SH161978 -16.17 112.16 58 0 -16.20 112.20 30 60 982 4.00 -16.26 112.16 TC 58 982 -16.18 112.17 2 58 -16.32 112.01 TC 58 983 14 78
1978 SI WA 1978-01-29 00:00:00 TS -16.12 112.59 657 651 O_____P__OO_O_ jtwc_sh SH161978 -16.10 112.70 60 0 -16.13 112.55 30 60 981 -16.10 112.50 TC 60 981 -16.10 112.70 2 60 -16.20 112.40 TC 60 982 12 77
1978 SI WA 01:00:00 TS -16.09 112.75 60 981 bom 645 639 P_____O__PP_P_ SH161978 -16.08 112.87 60 0 -16.10 112.70 30 60 981 4.00 4.00 -16.05 112.65 TC 60 980 -16.07 112.87 2 60 -16.13 112.56 TC 60 981 8 75
1978 SI WA 03:00:00 TS -16.02 112.99 643 638 P_____P__PP_P_ SH161978 -16.05 113.08 60 0 -16.03 112.91 30 60 980 -15.98 112.89 TC 60 980 -16.02 113.15 2 61 -15.98 112.85 TC 62 980 7 73
1978 SI WA 04:00:00 TS -15.99 113.09 60 980 bom 638 632 P_____O__PP_P_ SH161978 -16.04 113.16 60 0 -16.00 113.00 30 60 980 4.00 -15.95 112.99 TC 60 979 -15.99 113.27 2 61 -15.91 112.97 TC 63 980 6 72
1978 SI WA 06:00:00 TS -15.93 113.28 636 630 O_____P__OP_O_ jtwc_sh SH161978 -16.00 113.30 60 0 -15.93 113.19 30 60 979 -15.90 113.20 TC 60 979 -15.93 113.48 2 62 -15.80 113.20 TC 65 979 6 73
1978 SI WA 07:00:00 TS -15.90 113.39 60 979 bom 630 619 P_____O__PP_P_ SH161978 -15.97 113.41 60 0 -15.90 113.30 30 60 979 4.00 -15.88 113.32 TC 60 978 -15.91 113.57 2 62 -15.78 113.32 TC 65 978 7 77
1978 SI WA 09:00:00 TS -15.85 113.62 619 623 P_____P__PP_P_ SH161978 -15.90 113.65 62 0 -15.83 113.57 30 60 978 -15.84 113.56 TC 62 978 -15.86 113.74 2 63 -15.78 113.56 TC 65 978 7 78
1978 SI WA 10:00:00 TS -15.83 113.74 60 978 bom 623 608 P_____O__PP_P_ SH161978 -15.86 113.77 63 0 -15.80 113.70 30 60 978 4.00 -15.83 113.67 TC 63 977 -15.84 113.83 2 64 -15.79 113.68 TC 65 977 6 81
1978 SI WA 12:00:00 TS -15.80 113.95 608 608 O_____P__OO_O_ jtwc_sh SH161978 -15.80 114.00 65 1 -15.79 113.91 30 63 977 -15.80 113.90 TC 65 977 -15.80 114.00 4 65 -15.80 113.90 TC 65 977 6 81
1978 SI WA 13:00:00 TS -15.78 114.05 65 977 bom 603 598 P_____O__PP_P_ SH161978 -15.77 114.10 65 1 -15.80 114.00 40 65 977 4.50 -15.78 114.00 TC 65 976 -15.78 114.10 4 65 -15.79 114.00 TC 65 976 6 80
1978 SI WA 15:00:00 TS -15.75 114.25 598 604 P_____P__PP_P_ SH161978 -15.73 114.30 65 1 -15.81 114.20 40 68 976 -15.74 114.20 TC 65 976 -15.74 114.28 4 66 -15.75 114.20 TC 67 976 6 81
1978 SI WA 16:00:00 TS -15.74 114.34 70 976 bom 604 595 P_____O__PP_P_ SH161978 -15.72 114.40 65 1 -15.80 114.30 40 70 976 4.50 -15.73 114.30 TC 65 975 -15.72 114.38 4 66 -15.73 114.30 TC 68 975 6 81
1978 SI WA 18:00:00 TS -15.70 114.55 595 591 O_____P__OP_O_ jtwc_sh SH161978 -15.70 114.60 65 1 -15.73 114.50 40 70 975 -15.70 114.50 TC 65 975 -15.69 114.58 4 67 -15.70 114.50 TC 70 975 6 81
1978 SI WA 19:00:00 TS -15.69 114.65 70 975 bom 591 580 P_____O__PP_P_ SH161978 -15.69 114.70 65 1 -15.70 114.60 40 70 975 4.50 -15.69 114.60 TC 65 974 -15.68 114.68 4 67 -15.69 114.60 TC 70 974 6 86
1978 SI WA 21:00:00 TS -15.68 114.86 580 576 P_____P__PP_P_ SH161978 -15.68 114.92 67 1 -15.69 114.79 40 70 974 -15.68 114.80 TC 67 974 -15.67 114.90 4 68 -15.68 114.81 TC 70 974 6 89
1978 SI WA 22:00:00 TS -15.68 114.97 70 974 bom 576 570 P_____O__PP_P_ SH161978 -15.68 115.04 68 1 -15.70 114.90 40 70 974 4.50 -15.68 114.91 TC 68 973 -15.68 115.03 4 69 -15.69 114.93 TC 70 973 7 93
1978 SI WA 1978-01-30 00:00:00 TS -15.70 115.24 570 565 O_____P__OO_O_ jtwc_sh SH161978 -15.70 115.30 70 1 -15.69 115.14 40 70 973 -15.70 115.20 TC 70 973 -15.70 115.30 4 70 -15.70 115.20 TC 70 973 8 94
1978 SI WA 01:00:00 TS -15.71 115.40 70 973 bom 565 545 P_____O__PP_P_ SH161978 -15.72 115.44 70 1 -15.70 115.30 40 70 973 4.50 4.50 -15.72 115.39 TC 70 972 -15.72 115.46 4 70 -15.71 115.36 TC 70 972 10 98
1978 SI WA 03:00:00 TS -15.77 115.77 545 543 P_____P__PP_P_ SH161978 -15.78 115.76 70 1 -15.76 115.75 40 70 971 -15.79 115.83 TC 72 971 -15.77 115.80 4 71 -15.73 115.72 TC 72 971 11 99
1978 SI WA 04:00:00 TS -15.80 115.97 70 971 bom 542 526 P_____O__PP_P_ SH161978 -15.81 115.93 70 1 -15.80 116.00 40 70 971 4.50 -15.82 116.06 TC 73 970 -15.80 115.98 4 71 -15.75 115.91 TC 73 971 12 101
1978 SI WA 06:00:00 TS -15.87 116.38 526 526 O_____P__OP_O_ jtwc_sh SH161978 -15.90 116.30 70 1 -15.87 116.48 40 73 969 -15.90 116.50 TC 75 969 -15.88 116.37 4 72 -15.80 116.30 TC 75 970 12 101
1978 SI WA 07:00:00 TS -15.91 116.57 75 969 bom 525 505 P_____O__PP_P_ SH161978 -15.94 116.50 70 1 -15.90 116.70 40 75 969 4.50 -15.93 116.68 TC 75 968 -15.93 116.57 4 72 -15.84 116.48 TC 75 969 12 102
1978 SI WA 09:00:00 TS -16.00 116.96 505 503 P_____P__PP_P_ SH161978 -16.04 116.94 72 1 -15.96 117.05 40 75 968 -15.99 117.02 TC 75 968 -16.03 116.98 4 73 -15.93 116.85 TC 75 969 11 103
1978 SI WA 10:00:00 TS -16.05 117.15 75 968 bom 500 467 P_____O__PP_P_ SH161978 -16.09 117.16 73 1 -16.00 117.20 40 75 968 4.50 -16.03 117.18 TC 75 968 -16.08 117.18 4 74 -15.99 117.03 TC 75 968 11 106
1978 SI WA 12:00:00 TS -16.16 117.53 467 460 O_____P__OO_O_ jtwc_sh SH161978 -16.20 117.60 75 1 -16.14 117.46 40 75 968 -16.10 117.50 TC 75 968 -16.20 117.60 4 75 -16.10 117.40 TC 75 968 11 107
1978 SI WA 13:00:00 TS -16.21 117.71 75 968 bom 460 438 P_____O__PP_P_ SH161978 -16.26 117.81 75 1 -16.20 117.60 40 75 968 4.50 -16.14 117.68 TC 75 967 -16.25 117.81 4 75 -16.15 117.58 TC 75 967 11 106
1978 SI WA 15:00:00 TS -16.31 118.09 438 422 P_____P__PP_P_ SH161978 -16.39 118.21 77 1 -16.26 117.90 40 75 968 -16.23 118.04 TC 75 967 -16.37 118.24 4 77 -16.24 117.94 TC 77 967 11 106
1978 SI WA 16:00:00 TS -16.37 118.29 75 968 bom 422 381 P_____O__PP_P_ SH161978 -16.46 118.41 78 1 -16.30 118.10 40 75 968 5.00 -16.28 118.22 TC 75 967 -16.43 118.46 4 78 -16.29 118.13 TC 78 967 12 107
1978 SI WA 18:00:00 TS -16.50 118.70 381 358 O_____P__OP_O_ jtwc_sh SH161978 -16.60 118.80 80 1 -16.43 118.63 40 78 967 -16.40 118.60 TC 75 967 -16.56 118.88 4 80 -16.40 118.50 TC 80 967 13 108
1978 SI WA 19:00:00 TS -16.57 118.92 80 967 bom 358 314 P_____O__PP_P_ SH161978 -16.66 119.01 80 1 -16.50 118.90 40 80 967 5.00 -16.47 118.81 TC 75 966 -16.63 119.09 4 80 -16.46 118.71 TC 80 966 13 108
1978 SI WA 21:00:00 TS -16.70 119.34 314 290 P_____P__PP_P_ SH161978 -16.79 119.43 82 1 -16.63 119.32 40 80 966 -16.64 119.24 TC 77 966 -16.77 119.48 4 82 -16.59 119.13 TC 80 966 12 110
1978 SI WA 22:00:00 TS -16.77 119.53 80 966 bom 290 246 P_____O__PP_P_ SH161978 -16.86 119.63 83 2 -16.70 119.50 40 80 966 5.00 -16.72 119.44 TC 78 965 -16.85 119.67 4 83 -16.65 119.33 TC 80 965 12 114
1978 SI WA 1978-01-31 00:00:00 TS -16.93 119.89 246 232 O_____P__OO_O_ jtwc_sh SH161978 -17.00 120.00 85 2 -16.90 119.85 40 80 965 -16.90 119.80 TC 80 965 -17.00 120.00 4 85 -16.80 119.70 TC 80 965 11 116
1978 SI WA 01:00:00 TS -17.02 120.04 80 965 bom 232 196 P_____O__PP_P_ SH161978 -17.08 120.17 85 2 -17.00 120.00 40 80 965 5.00 5.00 -16.98 119.93 TC 80 964 -17.08 120.15 4 85 -16.87 119.84 TC 80 964 9 122
1978 SI WA 03:00:00 TS -17.17 120.30 196 185 P_____P__PP_P_ SH161978 -17.24 120.46 85 2 -17.13 120.22 40 80 965 -17.15 120.14 TC 80 964 -17.24 120.43 4 85 -17.03 120.08 TC 80 964 8 125
1978 SI WA 04:00:00 TS -17.26 120.41 80 965 bom 183 160 P_____O__PP_P_ SH161978 -17.33 120.59 85 2 -17.20 120.30 40 80 965 5.00 -17.23 120.22 TC 80 964 -17.33 120.55 4 85 -17.12 120.19 TC 80 964 8 132
1978 SI WA 06:00:00 TS -17.43 120.60 160 148 O_____P__OP_O_ jtwc_sh SH161978 -17.50 120.80 85 2 -17.39 120.42 40 80 964 -17.40 120.40 TC 80 964 -17.50 120.76 4 85 -17.30 120.40 TC 80 964 8 133
1978 SI WA 07:00:00 TS -17.52 120.70 80 964 bom 148 127 P_____O__PP_P_ SH161978 -17.59 120.89 85 2 -17.50 120.50 40 80 964 5.00 -17.49 120.52 TC 80 964 -17.59 120.86 4 85 -17.40 120.54 TC 80 964 8 131
1978 SI WA 09:00:00 TS -17.71 120.93 127 115 P_____P__PP_P_ SH161978 -17.76 121.05 85 2 -17.71 120.85 40 80 964 -17.66 120.77 TC 80 964 -17.76 121.02 4 85 -17.61 120.84 TC 80 964 8 131
1978 SI WA 10:00:00 TS -17.80 121.03 80 965 bom 115 84 P_____O__PP_P_ SH161978 -17.84 121.10 85 2 -17.80 121.00 40 80 965 5.00 -17.74 120.89 TC 80 964 -17.84 121.09 4 85 -17.71 120.98 TC 80 964 7 137
1978 SI WA 12:00:00 TS -17.95 121.17 80 bom 92 84 O_____I__IO_O_ jtwc_sh SH161978 -18.00 121.20 85 2 -17.90 121.10 40 80 965 5.00 -17.90 121.10 TC 80 964 -18.00 121.20 4 85 -17.90 121.20 TC 80 965 6 140
1978 SI WA 13:00:00 TS -18.03 121.23 80 965 bom 84 61 P_____O__PP_P_ SH161978 -18.07 121.25 85 2 -18.00 121.20 40 80 965 5.00 -17.97 121.18 TC 80 964 -18.07 121.26 4 85 -17.98 121.27 TC 80 965 5 142
1978 SI WA 15:00:00 TS -18.16 121.34 61 53 P_____P__PP_P_ SH161978 -18.21 121.33 85 2 -18.14 121.36 40 80 965 -18.10 121.30 TC 80 964 -18.20 121.35 4 85 -18.11 121.35 TC 80 965 5 147
1978 SI WA 16:00:00 TS -18.23 121.37 80 965 bom 53 38 P_____O__PP_P_ SH161978 -18.27 121.36 85 2 -18.20 121.40 40 80 965 5.00 -18.16 121.34 TC 80 964 -18.27 121.38 4 85 -18.18 121.37 TC 80 965 4 159
1978 SI WA 18:00:00 TS -18.35 121.41 38 38 O_____P__OP_O_ jtwc_sh SH161978 -18.40 121.40 85 2 -18.33 121.41 40 80 965 -18.30 121.40 TC 80 965 -18.39 121.43 4 85 -18.30 121.40 TC 80 965 4 166
1978 SI WA 19:00:00 TS -18.42 121.42 80 965 bom 38 31 P_____O__PP_P_ SH161978 -18.46 121.42 85 2 -18.40 121.40 40 80 965 5.00 -18.38 121.43 TC 79 965 -18.46 121.44 4 85 -18.36 121.43 TC 80 965 4 167
1978 SI WA 21:00:00 TS -18.56 121.44 31 31 P_____P__PP_P_ SH161978 -18.59 121.43 85 2 -18.53 121.40 40 80 965 -18.56 121.46 TC 77 966 -18.59 121.44 4 85 -18.48 121.47 TC 80 965 4 175
1978 SI WA 22:00:00 TS -18.63 121.44 80 965 bom 31 30 P_____O__PP_P_ SH161978 -18.66 121.43 85 2 -18.60 121.40 40 80 965 5.00 -18.66 121.47 TC 76 966 -18.65 121.43 4 85 -18.55 121.49 TC 80 965 4 185
1978 SI WA 1978-02-01 00:00:00 TS -18.78 121.43 30 30 O_____P__PO_O_ jtwc_sh SH161978 -18.80 121.40 85 2 -18.72 121.40 40 80 965 -18.85 121.46 TC 75 968 -18.80 121.40 4 85 -18.70 121.50 TC 80 965 5 0
1978 SI WA 01:00:00 TS -18.86 121.42 80 965 bom 23 10 P_____O__PP_P_ SH161978 -18.88 121.38 83 2 -18.80 121.40 40 80 965 5.00 -18.95 121.45 TC 74 968 -18.88 121.38 4 83 -18.79 121.50 TC 79 965 6 190
1978 SI WA 03:00:00 TS -19.05 121.38 10 10 P_____P__PP_P_ SH161978 -19.03 121.32 80 1 -19.06 121.41 40 80 966 -19.14 121.40 TC 72 969 -19.06 121.33 4 80 -18.99 121.48 TC 77 967 6 191
1978 SI WA 04:00:00 TS -19.15 121.35 80 967 bom 10 0 P_____O__PP_P_ SH161978 -19.12 121.29 78 1 -19.20 121.40 40 80 967 5.00 -19.23 121.37 TC 71 969 -19.15 121.29 4 78 -19.10 121.46 TC 76 967 6 199
1978 SI WA 06:00:00 TS -19.34 121.28 0 0 O_____P__OP_O_ jtwc_sh SH161978 -19.30 121.20 75 1 -19.41 121.35 40 73 969 -19.40 121.30 TC 70 971 -19.34 121.21 4 75 -19.30 121.40 TC 75 969 6 202
1978 SI WA 07:00:00 TS -19.43 121.23 70 971 bom 0 0 P_____O__PP_P_ SH161978 -19.40 121.16 73 1 -19.50 121.30 40 70 971 -19.47 121.27 TC 68 972 -19.43 121.16 4 73 -19.39 121.36 TC 70 970 6 208
1978 SI WA 09:00:00 TS -19.60 121.13 0 0 P_____P__PP_P_ SH161978 -19.60 121.06 70 1 -19.64 121.17 40 66 973 -19.60 121.18 TC 65 975 -19.62 121.06 4 70 -19.56 121.27 TC 62 972 6 210
1978 SI WA 10:00:00 TS -19.69 121.08 65 975 bom 0 0 P_____O__PP_P_ SH161978 -19.70 121.01 68 1 -19.70 121.10 40 65 975 -19.66 121.13 TC 63 976 -19.71 121.01 4 68 -19.64 121.22 TC 58 973 6 213
1978 SI WA 12:00:00 TS -19.85 120.96 0 0 O_____P__OO_O_ jtwc_sh SH161978 -19.90 120.90 65 1 -19.83 120.97 40 61 977 -19.80 121.00 TC 60 979 -19.90 120.90 4 65 -19.80 121.10 TC 50 976 6 214
1978 SI WA 13:00:00 TS -19.94 120.90 60 979 bom 0 0 P_____O__PP_P_ SH161978 -19.99 120.85 63 0 -19.90 120.90 30 60 979 -19.88 120.92 TC 59 979 -19.98 120.85 4 63 -19.89 121.03 TC 48 977 6 216
1978 SI WA 15:00:00 TS -20.11 120.76 0 0 P_____P__PP_P_ SH161978 -20.16 120.75 60 0 -20.10 120.69 30 53 981 -20.04 120.74 TC 57 982 -20.14 120.74 4 60 -20.06 120.89 TC 45 979 6 217
1978 SI WA 16:00:00 TS -20.19 120.69 50 982 bom 0 0 P_____O__PP_P_ SH161978 -20.24 120.70 58 0 -20.20 120.60 30 50 982 -20.13 120.65 TC 56 982 -20.21 120.68 4 58 -20.14 120.82 TC 43 980 6 215
1978 SI WA 18:00:00 TS -20.35 120.58 0 0 O_____P__OP_O_ jtwc_sh SH161978 -20.40 120.60 55 0 -20.34 120.52 30 46 984 -20.30 120.50 TC 55 985 -20.37 120.57 4 55 -20.30 120.70 TC 40 983 6 213
1978 SI WA 19:00:00 TS -20.42 120.53 45 985 bom 0 0 P_____O__PP_P_ SH161978 -20.48 120.54 53 0 -20.40 120.50 30 45 985 -20.38 120.45 TC 53 985 -20.45 120.52 4 53 -20.36 120.66 TC 39 983 5 210
1978 SI WA 21:00:00 TS -20.57 120.45 0 0 P_____P__PP_P_ SH161978 -20.64 120.44 50 0 -20.53 120.43 30 41 987 -20.53 120.37 TC 50 987 -20.62 120.42 4 50 -20.48 120.58 TC 37 985 5 208
1978 SI WA 22:00:00 TS -20.65 120.41 40 988 bom 0 0 P_____O__PP_P_ SH161978 -20.72 120.38 48 0 -20.60 120.40 30 40 988 -20.61 120.34 TC 48 988 -20.71 120.37 4 48 -20.55 120.56 TC 36 986 6 202
1978 SI WA 1978-02-02 00:00:00 TS -20.83 120.34 0 0 O_____P__OO_O_ jtwc_sh SH161978 -20.90 120.30 45 0 -20.79 120.33 30 36 989 -20.80 120.30 TC 45 990 -20.90 120.30 2 45 -20.70 120.50 TC 35 988 6 198
1978 SI WA 01:00:00 TS -20.94 120.31 35 990 bom 0 0 P_____O__PP_P_ SH161978 -21.00 120.27 44 0 -20.90 120.30 30 35 990 -20.92 120.28 TC 45 990 -21.01 120.26 2 44 -20.80 120.46 TC 34 988 7 191
1978 SI WA 03:00:00 TS -21.18 120.26 0 0 P_____P__PP_P_ SH161978 -21.23 120.23 42 0 -21.16 120.30 30 31 990 -21.18 120.24 TC 45 990 -21.25 120.20 2 43 -21.02 120.39 TC 32 989 7 188
1978 SI WA 04:00:00 TS -21.31 120.25 30 990 bom 0 0 P_____O__PP_P_ SH161978 -21.35 120.21 41 0 -21.30 120.30 80 30 990 -21.32 120.22 TC 45 990 -21.38 120.18 2 43 -21.14 120.35 TC 31 989 8 185
1978 SI WA 06:00:00 TS -21.57 120.21 0 0 O_____P__OP_O_ jtwc_sh SH161978 -21.60 120.20 40 0 -21.57 120.23 80 30 990 -21.60 120.20 TC 45 990 -21.63 120.15 2 42 -21.40 120.30 TC 30 990 8 186
1978 SI WA 07:00:00 TS -21.70 120.20 30 990 bom 0 0 P_____O__PP_P_ SH161978 -21.73 120.19 40 0 -21.70 120.20 80 30 990 -21.72 120.19 TC 44 990 -21.77 120.14 2 42 -21.53 120.28 TC 30 990 8 0
1978 SI WA 09:00:00 TS -21.96 120.19 0 0 P_____P__PP_P_ SH161978 -22.01 120.17 40 0 -21.97 120.19 80 26 991 -21.96 120.17 TC 42 991 -22.03 120.14 2 41 -21.81 120.27 TC 30 991 8 0
1978 SI WA 10:00:00 TS -22.09 120.19 25 992 bom 0 0 P_____O__PP_P_ SH161978 -22.14 120.17 40 0 -22.10 120.20 80 25 992 -22.08 120.17 TC 41 991 -22.15 120.15 2 40 -21.94 120.27 TC 30 991 7 0
1978 SI WA 12:00:00 TS -22.33 120.21 0 0 O_____P__OO_O_ jtwc_sh SH161978 -22.40 120.20 40 0 -22.31 120.18 80 25 992 -22.30 120.20 TC 40 993 -22.40 120.20 2 40 -22.20 120.30 TC 30 992 7 172
1978 SI WA 13:00:00 TS -22.44 120.24 25 993 bom 0 0 P_____O__PP_P_ SH161978 -22.51 120.23 40 0 -22.40 120.20 80 25 993 -22.41 120.23 TC 40 993 -22.52 120.24 2 39 -22.31 120.32 TC 30 992 7 162
1978 SI WA 15:00:00 TS -22.65 120.33 0 0 P_____P__PP_P_ SH161978 -22.71 120.31 40 0 -22.60 120.33 80 25 993 -22.61 120.32 TC 40 994 -22.74 120.33 2 38 -22.51 120.37 TC 30 993 7 157
1978 SI WA 16:00:00 TS -22.75 120.38 25 993 bom 0 0 P_____O__PP_P_ SH161978 -22.81 120.37 40 0 -22.70 120.40 80 25 993 -22.71 120.38 TC 40 994 -22.84 120.39 2 38 -22.61 120.41 TC 30 993 7 152
1978 SI WA 18:00:00 TS -22.94 120.50 0 0 O_____P__OP_O_ jtwc_sh SH161978 -23.00 120.50 40 0 -22.90 120.46 80 25 994 -22.90 120.50 TC 40 995 -23.04 120.52 2 37 -22.80 120.50 TC 30 994 7 151
1978 SI WA 19:00:00 TS -23.04 120.56 25 995 bom 0 0 P_____O__PP_P_ SH161978 -23.10 120.57 39 0 -23.00 120.50 80 25 995 -23.00 120.56 TC 39 995 -23.14 120.59 2 37 -22.90 120.56 TC 29 994 7 147
1978 SI WA 21:00:00 TS -23.23 120.70 0 0 P_____P__PP_P_ SH161978 -23.30 120.74 37 0 -23.20 120.62 80 25 995 -23.20 120.70 TC 37 996 -23.33 120.75 2 36 -23.10 120.68 TC 27 995 7 146
1978 SI WA 22:00:00 TS -23.33 120.78 25 996 bom 0 0 P_____O__PP_P_ SH161978 -23.40 120.82 36 0 -23.30 120.70 80 25 996 -23.30 120.76 TC 36 996 -23.42 120.83 2 35 -23.20 120.75 TC 26 995 7 143
1978 SI WA 1978-02-03 00:00:00 TS -23.53 120.94 0 0 O_____P__OO_O_ jtwc_sh SH161978 -23.60 121.00 35 0 -23.50 120.89 80 25 996 -23.50 120.90 TC 35 997 -23.60 121.00 2 35 -23.40 120.90 TC 25 996 7 143
1978 SI WA 01:00:00 NR -23.60 121.00 25 997 bom 0 ______O_______ SH161978 -1 -23.60 121.00 80 25 997 TC 2 TC 5 144